sensor_id;sensor_type;location;lat;lon;timestamp;temperature;humidity
28608;DHT22;15802;45.654;13.804;2023-04-09T00:00:23;9.50;99.90
28608;DHT22;15802;45.654;13.804;2023-04-09T00:02:49;9.50;99.90
28608;DHT22;15802;45.654;13.804;2023-04-09T00:05:14;9.50;99.90
28608;DHT22;15802;45.654;13.804;2023-04-09T00:07:40;9.50;99.90
28608;DHT22;15802;45.654;13.804;2023-04-09T00:10:06;9.50;99.90
28608;DHT22;15802;45.654;13.804;2023-04-09T00:12:31;9.50;99.90
28608;DHT22;15802;45.654;13.804;2023-04-09T00:14:57;9.40;99.90
28608;DHT22;15802;45.654;13.804;2023-04-09T00:17:23;9.40;99.90
28608;DHT22;15802;45.654;13.804;2023-04-09T00:19:48;9.40;99.90
28608;DHT22;15802;45.654;13.804;2023-04-09T00:22:14;9.40;99.90
28608;DHT22;15802;45.654;13.804;2023-04-09T00:24:40;9.30;99.90
28608;DHT22;15802;45.654;13.804;2023-04-09T00:27:06;9.30;99.90
28608;DHT22;15802;45.654;13.804;2023-04-09T00:29:31;9.30;99.90
28608;DHT22;15802;45.654;13.804;2023-04-09T00:31:57;9.30;99.90
28608;DHT22;15802;45.654;13.804;2023-04-09T00:34:22;9.20;99.90
28608;DHT22;15802;45.654;13.804;2023-04-09T00:36:48;9.20;99.90
28608;DHT22;15802;45.654;13.804;2023-04-09T00:39:13;9.20;99.90
28608;DHT22;15802;45.654;13.804;2023-04-09T00:41:39;9.20;99.90
28608;DHT22;15802;45.654;13.804;2023-04-09T00:44:05;9.20;99.90
28608;DHT22;15802;45.654;13.804;2023-04-09T00:46:30;9.30;99.90
28608;DHT22;15802;45.654;13.804;2023-04-09T00:48:56;9.30;99.90
28608;DHT22;15802;45.654;13.804;2023-04-09T00:51:22;9.20;99.90
28608;DHT22;15802;45.654;13.804;2023-04-09T00:53:48;9.30;99.90
28608;DHT22;15802;45.654;13.804;2023-04-09T00:56:14;9.20;99.90
28608;DHT22;15802;45.654;13.804;2023-04-09T00:58:41;9.20;99.90
28608;DHT22;15802;45.654;13.804;2023-04-09T01:01:07;9.20;99.90
28608;DHT22;15802;45.654;13.804;2023-04-09T01:03:32;9.20;99.90
28608;DHT22;15802;45.654;13.804;2023-04-09T01:06:03;9.20;99.90
28608;DHT22;15802;45.654;13.804;2023-04-09T01:11:22;9.20;99.90
28608;DHT22;15802;45.654;13.804;2023-04-09T01:13:57;9.30;99.90
28608;DHT22;15802;45.654;13.804;2023-04-09T01:16:25;9.30;99.90
28608;DHT22;15802;45.654;13.804;2023-04-09T01:19:01;9.30;99.90
28608;DHT22;15802;45.654;13.804;2023-04-09T01:21:31;9.30;99.90
28608;DHT22;15802;45.654;13.804;2023-04-09T01:24:06;9.30;99.90
28608;DHT22;15802;45.654;13.804;2023-04-09T01:29:21;9.20;99.90
28608;DHT22;15802;45.654;13.804;2023-04-09T01:31:48;9.20;99.90
28608;DHT22;15802;45.654;13.804;2023-04-09T01:34:14;9.20;99.90
28608;DHT22;15802;45.654;13.804;2023-04-09T01:36:40;9.20;99.90
28608;DHT22;15802;45.654;13.804;2023-04-09T01:39:09;9.10;99.90
28608;DHT22;15802;45.654;13.804;2023-04-09T01:41:35;9.00;99.90
28608;DHT22;15802;45.654;13.804;2023-04-09T01:44:02;9.00;99.90
28608;DHT22;15802;45.654;13.804;2023-04-09T01:46:28;9.00;99.90
28608;DHT22;15802;45.654;13.804;2023-04-09T01:48:54;8.90;99.90
28608;DHT22;15802;45.654;13.804;2023-04-09T01:51:19;8.90;99.90
28608;DHT22;15802;45.654;13.804;2023-04-09T01:53:45;8.90;99.90
28608;DHT22;15802;45.654;13.804;2023-04-09T01:56:11;8.90;99.90
28608;DHT22;15802;45.654;13.804;2023-04-09T01:58:36;8.90;99.90
28608;DHT22;15802;45.654;13.804;2023-04-09T02:01:04;9.00;99.90
28608;DHT22;15802;45.654;13.804;2023-04-09T02:03:34;9.00;99.90
28608;DHT22;15802;45.654;13.804;2023-04-09T02:08:46;8.90;99.90
28608;DHT22;15802;45.654;13.804;2023-04-09T02:11:12;8.90;99.90
28608;DHT22;15802;45.654;13.804;2023-04-09T02:13:39;8.90;99.90
28608;DHT22;15802;45.654;13.804;2023-04-09T02:16:06;8.90;99.90
28608;DHT22;15802;45.654;13.804;2023-04-09T02:18:31;9.00;99.90
28608;DHT22;15802;45.654;13.804;2023-04-09T02:20:57;9.00;99.90
28608;DHT22;15802;45.654;13.804;2023-04-09T02:23:23;9.00;99.90
28608;DHT22;15802;45.654;13.804;2023-04-09T02:25:49;9.00;99.90
28608;DHT22;15802;45.654;13.804;2023-04-09T02:28:15;9.00;99.90
28608;DHT22;15802;45.654;13.804;2023-04-09T02:30:41;9.00;99.90
28608;DHT22;15802;45.654;13.804;2023-04-09T02:33:07;9.00;99.90
28608;DHT22;15802;45.654;13.804;2023-04-09T02:35:32;9.00;99.90
28608;DHT22;15802;45.654;13.804;2023-04-09T02:37:58;9.10;99.90
28608;DHT22;15802;45.654;13.804;2023-04-09T02:40:24;9.10;99.90
28608;DHT22;15802;45.654;13.804;2023-04-09T02:42:50;9.00;99.90
28608;DHT22;15802;45.654;13.804;2023-04-09T02:45:16;9.00;99.90
28608;DHT22;15802;45.654;13.804;2023-04-09T02:47:41;8.90;99.90
28608;DHT22;15802;45.654;13.804;2023-04-09T02:50:07;8.90;99.90
28608;DHT22;15802;45.654;13.804;2023-04-09T02:52:33;8.90;99.90
28608;DHT22;15802;45.654;13.804;2023-04-09T02:54:58;8.90;99.90
28608;DHT22;15802;45.654;13.804;2023-04-09T02:57:24;8.90;99.90
28608;DHT22;15802;45.654;13.804;2023-04-09T02:59:49;8.90;99.90
28608;DHT22;15802;45.654;13.804;2023-04-09T03:02:15;8.90;99.90
28608;DHT22;15802;45.654;13.804;2023-04-09T03:04:41;8.80;99.90
28608;DHT22;15802;45.654;13.804;2023-04-09T03:07:06;8.90;99.90
28608;DHT22;15802;45.654;13.804;2023-04-09T03:09:32;8.90;99.90
28608;DHT22;15802;45.654;13.804;2023-04-09T03:11:58;9.00;99.90
28608;DHT22;15802;45.654;13.804;2023-04-09T03:14:23;8.90;99.90
28608;DHT22;15802;45.654;13.804;2023-04-09T03:16:49;8.80;99.90
28608;DHT22;15802;45.654;13.804;2023-04-09T03:19:14;8.70;99.90
28608;DHT22;15802;45.654;13.804;2023-04-09T03:21:40;8.70;99.90
28608;DHT22;15802;45.654;13.804;2023-04-09T03:24:06;8.70;99.90
28608;DHT22;15802;45.654;13.804;2023-04-09T03:26:32;8.60;99.90
28608;DHT22;15802;45.654;13.804;2023-04-09T03:29:01;8.60;99.90
28608;DHT22;15802;45.654;13.804;2023-04-09T03:31:26;8.70;99.90
28608;DHT22;15802;45.654;13.804;2023-04-09T03:33:52;8.70;99.90
28608;DHT22;15802;45.654;13.804;2023-04-09T03:36:17;8.60;99.90
28608;DHT22;15802;45.654;13.804;2023-04-09T03:38:43;8.60;99.90
28608;DHT22;15802;45.654;13.804;2023-04-09T03:41:08;8.60;99.90
28608;DHT22;15802;45.654;13.804;2023-04-09T03:43:34;8.50;99.90
28608;DHT22;15802;45.654;13.804;2023-04-09T03:46:00;8.60;99.90
28608;DHT22;15802;45.654;13.804;2023-04-09T03:48:26;8.60;99.90
28608;DHT22;15802;45.654;13.804;2023-04-09T03:50:51;8.60;99.90
28608;DHT22;15802;45.654;13.804;2023-04-09T03:53:18;8.50;99.90
28608;DHT22;15802;45.654;13.804;2023-04-09T03:55:43;8.50;99.90
28608;DHT22;15802;45.654;13.804;2023-04-09T03:58:09;8.50;99.90
28608;DHT22;15802;45.654;13.804;2023-04-09T04:00:35;8.60;99.90
28608;DHT22;15802;45.654;13.804;2023-04-09T04:03:01;8.50;99.90
28608;DHT22;15802;45.654;13.804;2023-04-09T04:05:26;8.50;99.90
28608;DHT22;15802;45.654;13.804;2023-04-09T04:07:52;8.50;99.90
28608;DHT22;15802;45.654;13.804;2023-04-09T04:10:18;8.60;99.90
28608;DHT22;15802;45.654;13.804;2023-04-09T04:12:44;8.40;99.90
28608;DHT22;15802;45.654;13.804;2023-04-09T04:15:10;8.40;99.90
28608;DHT22;15802;45.654;13.804;2023-04-09T04:17:35;8.40;99.90
28608;DHT22;15802;45.654;13.804;2023-04-09T04:20:01;8.50;99.90
28608;DHT22;15802;45.654;13.804;2023-04-09T04:22:26;8.60;99.90
28608;DHT22;15802;45.654;13.804;2023-04-09T04:24:52;8.60;99.90
28608;DHT22;15802;45.654;13.804;2023-04-09T04:27:18;8.70;99.90
28608;DHT22;15802;45.654;13.804;2023-04-09T04:29:43;8.60;99.90
28608;DHT22;15802;45.654;13.804;2023-04-09T04:32:09;8.70;99.90
28608;DHT22;15802;45.654;13.804;2023-04-09T04:34:35;8.70;99.90
28608;DHT22;15802;45.654;13.804;2023-04-09T04:37:00;8.60;99.90
28608;DHT22;15802;45.654;13.804;2023-04-09T04:39:26;8.60;99.90
28608;DHT22;15802;45.654;13.804;2023-04-09T04:41:51;8.60;99.90
28608;DHT22;15802;45.654;13.804;2023-04-09T04:44:17;8.50;99.90
28608;DHT22;15802;45.654;13.804;2023-04-09T04:46:42;8.50;99.90
28608;DHT22;15802;45.654;13.804;2023-04-09T04:49:08;8.40;99.90
28608;DHT22;15802;45.654;13.804;2023-04-09T04:51:34;8.50;99.90
28608;DHT22;15802;45.654;13.804;2023-04-09T04:53:59;8.50;99.90
28608;DHT22;15802;45.654;13.804;2023-04-09T04:56:25;8.40;99.90
28608;DHT22;15802;45.654;13.804;2023-04-09T04:58:50;8.40;99.90
28608;DHT22;15802;45.654;13.804;2023-04-09T05:01:16;8.50;99.90
28608;DHT22;15802;45.654;13.804;2023-04-09T05:03:42;8.40;99.90
28608;DHT22;15802;45.654;13.804;2023-04-09T05:06:07;8.50;99.90
28608;DHT22;15802;45.654;13.804;2023-04-09T05:08:33;8.50;99.90
28608;DHT22;15802;45.654;13.804;2023-04-09T05:10:59;8.50;99.90
28608;DHT22;15802;45.654;13.804;2023-04-09T05:13:24;8.60;99.90
28608;DHT22;15802;45.654;13.804;2023-04-09T05:15:52;8.60;99.90
28608;DHT22;15802;45.654;13.804;2023-04-09T05:18:18;8.50;99.90
28608;DHT22;15802;45.654;13.804;2023-04-09T05:20:43;8.50;99.90
28608;DHT22;15802;45.654;13.804;2023-04-09T05:23:09;8.60;99.90
28608;DHT22;15802;45.654;13.804;2023-04-09T05:25:35;8.60;99.90
28608;DHT22;15802;45.654;13.804;2023-04-09T05:28:00;8.70;99.90
28608;DHT22;15802;45.654;13.804;2023-04-09T05:30:26;8.70;99.90
28608;DHT22;15802;45.654;13.804;2023-04-09T05:32:51;8.70;99.90
28608;DHT22;15802;45.654;13.804;2023-04-09T05:35:17;8.70;99.90
28608;DHT22;15802;45.654;13.804;2023-04-09T05:37:43;8.70;99.90
28608;DHT22;15802;45.654;13.804;2023-04-09T05:40:08;8.80;99.90
28608;DHT22;15802;45.654;13.804;2023-04-09T05:42:34;8.80;99.90
28608;DHT22;15802;45.654;13.804;2023-04-09T05:45:00;8.90;99.90
28608;DHT22;15802;45.654;13.804;2023-04-09T05:47:26;8.90;99.90
28608;DHT22;15802;45.654;13.804;2023-04-09T05:49:51;9.00;99.90
28608;DHT22;15802;45.654;13.804;2023-04-09T05:52:20;8.90;99.90
28608;DHT22;15802;45.654;13.804;2023-04-09T05:54:46;8.80;99.90
28608;DHT22;15802;45.654;13.804;2023-04-09T05:57:12;8.80;99.90
28608;DHT22;15802;45.654;13.804;2023-04-09T05:59:37;8.90;99.90
28608;DHT22;15802;45.654;13.804;2023-04-09T06:02:03;8.90;99.90
28608;DHT22;15802;45.654;13.804;2023-04-09T06:04:29;8.80;99.90
28608;DHT22;15802;45.654;13.804;2023-04-09T06:06:54;8.80;99.90
28608;DHT22;15802;45.654;13.804;2023-04-09T06:09:24;8.70;99.90
28608;DHT22;15802;45.654;13.804;2023-04-09T06:11:51;8.70;99.90
28608;DHT22;15802;45.654;13.804;2023-04-09T06:14:16;8.80;99.90
28608;DHT22;15802;45.654;13.804;2023-04-09T06:16:42;8.80;99.90
28608;DHT22;15802;45.654;13.804;2023-04-09T06:19:11;8.80;99.90
28608;DHT22;15802;45.654;13.804;2023-04-09T06:21:37;8.90;99.90
28608;DHT22;15802;45.654;13.804;2023-04-09T06:24:03;9.00;99.90
28608;DHT22;15802;45.654;13.804;2023-04-09T06:26:29;8.90;99.90
28608;DHT22;15802;45.654;13.804;2023-04-09T06:28:54;8.90;99.90
28608;DHT22;15802;45.654;13.804;2023-04-09T06:31:20;8.90;99.90
28608;DHT22;15802;45.654;13.804;2023-04-09T06:33:46;8.80;99.90
28608;DHT22;15802;45.654;13.804;2023-04-09T06:36:11;8.90;99.90
28608;DHT22;15802;45.654;13.804;2023-04-09T06:38:43;9.00;99.90
28608;DHT22;15802;45.654;13.804;2023-04-09T06:41:08;9.00;99.90
28608;DHT22;15802;45.654;13.804;2023-04-09T06:43:37;9.00;99.90
28608;DHT22;15802;45.654;13.804;2023-04-09T06:46:02;9.10;99.90
28608;DHT22;15802;45.654;13.804;2023-04-09T06:48:28;9.10;99.90
28608;DHT22;15802;45.654;13.804;2023-04-09T06:50:53;9.20;99.90
28608;DHT22;15802;45.654;13.804;2023-04-09T06:53:19;9.30;99.90
28608;DHT22;15802;45.654;13.804;2023-04-09T06:55:45;9.30;99.90
28608;DHT22;15802;45.654;13.804;2023-04-09T06:58:10;9.30;99.90
28608;DHT22;15802;45.654;13.804;2023-04-09T07:00:36;9.40;99.90
28608;DHT22;15802;45.654;13.804;2023-04-09T07:03:01;9.40;99.90
28608;DHT22;15802;45.654;13.804;2023-04-09T07:05:28;9.50;99.90
28608;DHT22;15802;45.654;13.804;2023-04-09T07:07:54;9.50;99.90
28608;DHT22;15802;45.654;13.804;2023-04-09T07:10:20;9.50;99.90
28608;DHT22;15802;45.654;13.804;2023-04-09T07:12:46;9.50;99.90
28608;DHT22;15802;45.654;13.804;2023-04-09T07:15:12;9.50;99.90
28608;DHT22;15802;45.654;13.804;2023-04-09T07:17:37;9.60;99.90
28608;DHT22;15802;45.654;13.804;2023-04-09T07:20:03;9.70;99.90
28608;DHT22;15802;45.654;13.804;2023-04-09T07:22:29;9.70;99.90
28608;DHT22;15802;45.654;13.804;2023-04-09T07:24:55;9.70;99.90
28608;DHT22;15802;45.654;13.804;2023-04-09T07:27:24;9.70;99.90
28608;DHT22;15802;45.654;13.804;2023-04-09T07:29:52;9.70;99.90
28608;DHT22;15802;45.654;13.804;2023-04-09T07:32:18;9.80;99.90
28608;DHT22;15802;45.654;13.804;2023-04-09T07:34:44;9.90;99.90
28608;DHT22;15802;45.654;13.804;2023-04-09T07:37:10;9.90;99.90
28608;DHT22;15802;45.654;13.804;2023-04-09T07:39:36;9.90;99.90
28608;DHT22;15802;45.654;13.804;2023-04-09T07:42:03;9.90;99.90
28608;DHT22;15802;45.654;13.804;2023-04-09T07:44:32;9.90;99.90
28608;DHT22;15802;45.654;13.804;2023-04-09T07:46:58;9.80;99.90
28608;DHT22;15802;45.654;13.804;2023-04-09T07:49:23;9.80;99.90
28608;DHT22;15802;45.654;13.804;2023-04-09T07:51:49;10.00;99.90
28608;DHT22;15802;45.654;13.804;2023-04-09T07:54:15;10.00;99.90
28608;DHT22;15802;45.654;13.804;2023-04-09T07:56:40;10.00;99.90
28608;DHT22;15802;45.654;13.804;2023-04-09T07:59:06;10.00;99.90
28608;DHT22;15802;45.654;13.804;2023-04-09T08:01:31;10.00;99.90
28608;DHT22;15802;45.654;13.804;2023-04-09T08:03:57;10.10;99.90
28608;DHT22;15802;45.654;13.804;2023-04-09T08:06:23;10.10;99.90
28608;DHT22;15802;45.654;13.804;2023-04-09T08:08:48;10.20;99.90
28608;DHT22;15802;45.654;13.804;2023-04-09T08:11:14;10.30;99.90
28608;DHT22;15802;45.654;13.804;2023-04-09T08:13:39;10.40;99.90
28608;DHT22;15802;45.654;13.804;2023-04-09T08:16:06;10.40;99.90
28608;DHT22;15802;45.654;13.804;2023-04-09T08:18:31;10.40;99.90
28608;DHT22;15802;45.654;13.804;2023-04-09T08:20:57;10.40;99.90
28608;DHT22;15802;45.654;13.804;2023-04-09T08:23:22;10.60;99.90
28608;DHT22;15802;45.654;13.804;2023-04-09T08:25:48;10.70;99.90
28608;DHT22;15802;45.654;13.804;2023-04-09T08:28:14;10.80;99.90
28608;DHT22;15802;45.654;13.804;2023-04-09T08:30:39;10.80;99.90
28608;DHT22;15802;45.654;13.804;2023-04-09T08:33:05;10.80;99.90
28608;DHT22;15802;45.654;13.804;2023-04-09T08:35:30;10.90;99.90
28608;DHT22;15802;45.654;13.804;2023-04-09T08:37:56;11.00;99.90
28608;DHT22;15802;45.654;13.804;2023-04-09T08:40:22;11.10;99.90
28608;DHT22;15802;45.654;13.804;2023-04-09T08:42:53;11.20;99.90
28608;DHT22;15802;45.654;13.804;2023-04-09T08:45:21;11.20;99.90
28608;DHT22;15802;45.654;13.804;2023-04-09T08:47:47;11.30;99.90
28608;DHT22;15802;45.654;13.804;2023-04-09T08:50:13;11.40;99.90
28608;DHT22;15802;45.654;13.804;2023-04-09T08:52:39;11.40;99.90
28608;DHT22;15802;45.654;13.804;2023-04-09T08:55:05;11.40;99.90
28608;DHT22;15802;45.654;13.804;2023-04-09T08:57:35;11.50;99.90
28608;DHT22;15802;45.654;13.804;2023-04-09T09:00:01;11.50;99.90
28608;DHT22;15802;45.654;13.804;2023-04-09T09:02:27;11.60;99.90
28608;DHT22;15802;45.654;13.804;2023-04-09T09:04:52;11.50;99.90
28608;DHT22;15802;45.654;13.804;2023-04-09T09:07:19;11.60;99.90
28608;DHT22;15802;45.654;13.804;2023-04-09T09:09:53;11.60;99.90
28608;DHT22;15802;45.654;13.804;2023-04-09T09:12:35;11.60;99.90
28608;DHT22;15802;45.654;13.804;2023-04-09T09:15:02;11.40;99.90
28608;DHT22;15802;45.654;13.804;2023-04-09T09:17:29;11.30;99.90
28608;DHT22;15802;45.654;13.804;2023-04-09T09:19:54;11.40;99.90
28608;DHT22;15802;45.654;13.804;2023-04-09T09:22:20;11.40;99.90
28608;DHT22;15802;45.654;13.804;2023-04-09T09:24:47;11.40;99.90
28608;DHT22;15802;45.654;13.804;2023-04-09T09:30:00;11.80;99.90
28608;DHT22;15802;45.654;13.804;2023-04-09T09:32:25;11.90;99.90
28608;DHT22;15802;45.654;13.804;2023-04-09T09:35:07;11.80;99.90
28608;DHT22;15802;45.654;13.804;2023-04-09T09:37:33;12.00;99.90
28608;DHT22;15802;45.654;13.804;2023-04-09T09:39:59;12.10;99.90
28608;DHT22;15802;45.654;13.804;2023-04-09T09:42:25;12.00;99.90
28608;DHT22;15802;45.654;13.804;2023-04-09T09:44:52;12.10;99.90
28608;DHT22;15802;45.654;13.804;2023-04-09T09:47:18;12.20;99.90
28608;DHT22;15802;45.654;13.804;2023-04-09T09:49:44;12.20;99.90
28608;DHT22;15802;45.654;13.804;2023-04-09T09:52:10;12.20;99.90
28608;DHT22;15802;45.654;13.804;2023-04-09T09:54:38;12.30;99.90
28608;DHT22;15802;45.654;13.804;2023-04-09T09:57:05;12.50;99.90
28608;DHT22;15802;45.654;13.804;2023-04-09T09:59:33;12.60;99.90
28608;DHT22;15802;45.654;13.804;2023-04-09T10:01:59;12.70;99.90
28608;DHT22;15802;45.654;13.804;2023-04-09T10:04:28;12.90;99.90
28608;DHT22;15802;45.654;13.804;2023-04-09T10:06:54;12.80;99.90
28608;DHT22;15802;45.654;13.804;2023-04-09T10:09:21;12.80;99.90
28608;DHT22;15802;45.654;13.804;2023-04-09T10:11:47;12.80;99.90
28608;DHT22;15802;45.654;13.804;2023-04-09T10:14:13;13.10;99.90
28608;DHT22;15802;45.654;13.804;2023-04-09T10:16:40;12.90;99.90
28608;DHT22;15802;45.654;13.804;2023-04-09T10:19:06;12.90;99.90
28608;DHT22;15802;45.654;13.804;2023-04-09T10:21:48;13.00;99.90
28608;DHT22;15802;45.654;13.804;2023-04-09T10:24:17;12.90;99.90
28608;DHT22;15802;45.654;13.804;2023-04-09T10:26:43;13.10;99.90
28608;DHT22;15802;45.654;13.804;2023-04-09T10:29:11;13.30;99.90
28608;DHT22;15802;45.654;13.804;2023-04-09T10:34:26;13.70;99.90
28608;DHT22;15802;45.654;13.804;2023-04-09T10:36:54;14.20;99.90
28608;DHT22;15802;45.654;13.804;2023-04-09T10:39:20;14.40;99.90
28608;DHT22;15802;45.654;13.804;2023-04-09T10:41:45;14.40;99.90
28608;DHT22;15802;45.654;13.804;2023-04-09T10:44:20;14.20;99.90
28608;DHT22;15802;45.654;13.804;2023-04-09T10:46:46;14.10;99.90
28608;DHT22;15802;45.654;13.804;2023-04-09T10:49:16;14.30;99.90
28608;DHT22;15802;45.654;13.804;2023-04-09T10:51:50;13.90;99.90
28608;DHT22;15802;45.654;13.804;2023-04-09T10:57:15;13.50;99.90
28608;DHT22;15802;45.654;13.804;2023-04-09T10:59:43;13.30;99.90
28608;DHT22;15802;45.654;13.804;2023-04-09T11:05:17;13.50;99.90
28608;DHT22;15802;45.654;13.804;2023-04-09T11:07:53;13.20;99.90
28608;DHT22;15802;45.654;13.804;2023-04-09T11:10:20;13.70;99.90
28608;DHT22;15802;45.654;13.804;2023-04-09T11:12:47;13.80;99.90
28608;DHT22;15802;45.654;13.804;2023-04-09T11:15:17;13.70;99.90
28608;DHT22;15802;45.654;13.804;2023-04-09T11:17:43;14.00;99.90
28608;DHT22;15802;45.654;13.804;2023-04-09T11:20:12;14.00;99.90
28608;DHT22;15802;45.654;13.804;2023-04-09T11:22:38;13.80;99.90
28608;DHT22;15802;45.654;13.804;2023-04-09T11:25:03;13.40;99.90
28608;DHT22;15802;45.654;13.804;2023-04-09T11:27:29;13.30;99.90
28608;DHT22;15802;45.654;13.804;2023-04-09T11:29:55;13.10;99.90
28608;DHT22;15802;45.654;13.804;2023-04-09T11:32:21;12.90;99.90
28608;DHT22;15802;45.654;13.804;2023-04-09T11:34:46;12.90;99.90
28608;DHT22;15802;45.654;13.804;2023-04-09T11:37:13;12.90;99.90
28608;DHT22;15802;45.654;13.804;2023-04-09T11:39:39;13.00;99.90
28608;DHT22;15802;45.654;13.804;2023-04-09T11:42:05;13.00;99.90
28608;DHT22;15802;45.654;13.804;2023-04-09T11:44:30;12.90;99.90
28608;DHT22;15802;45.654;13.804;2023-04-09T11:46:57;13.00;99.90
28608;DHT22;15802;45.654;13.804;2023-04-09T11:49:23;13.20;99.90
28608;DHT22;15802;45.654;13.804;2023-04-09T11:51:49;13.20;99.90
28608;DHT22;15802;45.654;13.804;2023-04-09T11:54:15;13.20;99.90
28608;DHT22;15802;45.654;13.804;2023-04-09T11:56:40;13.30;99.90
28608;DHT22;15802;45.654;13.804;2023-04-09T11:59:07;13.20;99.90
28608;DHT22;15802;45.654;13.804;2023-04-09T12:01:33;13.40;99.90
28608;DHT22;15802;45.654;13.804;2023-04-09T12:03:59;13.20;99.90
28608;DHT22;15802;45.654;13.804;2023-04-09T12:06:25;13.20;99.90
28608;DHT22;15802;45.654;13.804;2023-04-09T12:08:51;13.20;99.90
28608;DHT22;15802;45.654;13.804;2023-04-09T12:11:17;13.20;99.90
28608;DHT22;15802;45.654;13.804;2023-04-09T12:13:44;13.40;99.90
28608;DHT22;15802;45.654;13.804;2023-04-09T12:16:10;13.30;99.90
28608;DHT22;15802;45.654;13.804;2023-04-09T12:18:36;13.30;99.90
28608;DHT22;15802;45.654;13.804;2023-04-09T12:21:02;13.60;99.90
28608;DHT22;15802;45.654;13.804;2023-04-09T12:23:28;13.30;99.90
28608;DHT22;15802;45.654;13.804;2023-04-09T12:25:55;13.30;99.90
28608;DHT22;15802;45.654;13.804;2023-04-09T12:28:23;13.40;99.90
28608;DHT22;15802;45.654;13.804;2023-04-09T12:30:49;13.60;99.90
28608;DHT22;15802;45.654;13.804;2023-04-09T12:33:15;13.70;99.90
28608;DHT22;15802;45.654;13.804;2023-04-09T12:35:41;13.60;99.90
28608;DHT22;15802;45.654;13.804;2023-04-09T12:38:06;13.50;99.90
28608;DHT22;15802;45.654;13.804;2023-04-09T12:40:33;13.50;99.90
28608;DHT22;15802;45.654;13.804;2023-04-09T12:42:59;13.60;99.90
28608;DHT22;15802;45.654;13.804;2023-04-09T12:45:25;13.80;99.90
28608;DHT22;15802;45.654;13.804;2023-04-09T12:47:52;13.80;99.90
28608;DHT22;15802;45.654;13.804;2023-04-09T12:50:17;14.10;99.90
28608;DHT22;15802;45.654;13.804;2023-04-09T12:52:43;14.50;99.90
28608;DHT22;15802;45.654;13.804;2023-04-09T12:55:09;14.30;99.90
28608;DHT22;15802;45.654;13.804;2023-04-09T12:57:35;14.60;99.90
28608;DHT22;15802;45.654;13.804;2023-04-09T13:00:01;14.70;99.90
28608;DHT22;15802;45.654;13.804;2023-04-09T13:02:29;14.80;99.90
28608;DHT22;15802;45.654;13.804;2023-04-09T13:04:54;14.80;99.90
28608;DHT22;15802;45.654;13.804;2023-04-09T13:07:20;14.90;99.90
28608;DHT22;15802;45.654;13.804;2023-04-09T13:09:47;14.90;99.90
28608;DHT22;15802;45.654;13.804;2023-04-09T13:12:16;15.00;99.90
28608;DHT22;15802;45.654;13.804;2023-04-09T13:14:42;14.90;99.90
28608;DHT22;15802;45.654;13.804;2023-04-09T13:17:09;14.80;99.90
28608;DHT22;15802;45.654;13.804;2023-04-09T13:19:35;14.70;99.90
28608;DHT22;15802;45.654;13.804;2023-04-09T13:22:00;14.60;99.90
28608;DHT22;15802;45.654;13.804;2023-04-09T13:24:26;14.70;99.90
28608;DHT22;15802;45.654;13.804;2023-04-09T13:26:52;15.00;99.90
28608;DHT22;15802;45.654;13.804;2023-04-09T13:29:18;15.20;99.90
28608;DHT22;15802;45.654;13.804;2023-04-09T13:31:43;15.50;99.90
28608;DHT22;15802;45.654;13.804;2023-04-09T13:34:09;15.80;99.90
28608;DHT22;15802;45.654;13.804;2023-04-09T13:36:35;15.70;99.90
28608;DHT22;15802;45.654;13.804;2023-04-09T13:39:00;15.20;99.90
28608;DHT22;15802;45.654;13.804;2023-04-09T13:41:29;15.10;99.90
28608;DHT22;15802;45.654;13.804;2023-04-09T13:43:55;15.20;99.90
28608;DHT22;15802;45.654;13.804;2023-04-09T13:46:21;15.20;99.90
28608;DHT22;15802;45.654;13.804;2023-04-09T13:48:46;15.10;99.90
28608;DHT22;15802;45.654;13.804;2023-04-09T13:51:12;15.00;99.90
28608;DHT22;15802;45.654;13.804;2023-04-09T13:53:38;14.60;99.90
28608;DHT22;15802;45.654;13.804;2023-04-09T13:56:03;14.50;99.90
28608;DHT22;15802;45.654;13.804;2023-04-09T13:58:29;14.50;99.90
28608;DHT22;15802;45.654;13.804;2023-04-09T14:00:55;14.50;99.90
28608;DHT22;15802;45.654;13.804;2023-04-09T14:03:21;14.50;99.90
28608;DHT22;15802;45.654;13.804;2023-04-09T14:05:46;14.80;99.90
28608;DHT22;15802;45.654;13.804;2023-04-09T14:08:12;15.50;99.80
28608;DHT22;15802;45.654;13.804;2023-04-09T14:10:40;16.20;99.30
28608;DHT22;15802;45.654;13.804;2023-04-09T14:13:06;16.50;98.90
28608;DHT22;15802;45.654;13.804;2023-04-09T14:15:34;16.50;98.20
28608;DHT22;15802;45.654;13.804;2023-04-09T14:18:01;16.00;98.60
28608;DHT22;15802;45.654;13.804;2023-04-09T14:20:26;15.80;97.80
28608;DHT22;15802;45.654;13.804;2023-04-09T14:22:52;15.70;98.50
28608;DHT22;15802;45.654;13.804;2023-04-09T14:25:18;15.20;99.20
28608;DHT22;15802;45.654;13.804;2023-04-09T14:27:43;15.30;99.60
28608;DHT22;15802;45.654;13.804;2023-04-09T14:30:10;15.50;99.80
28608;DHT22;15802;45.654;13.804;2023-04-09T14:32:36;15.70;99.10
28608;DHT22;15802;45.654;13.804;2023-04-09T14:35:02;16.10;98.60
28608;DHT22;15802;45.654;13.804;2023-04-09T14:37:27;16.50;98.20
28608;DHT22;15802;45.654;13.804;2023-04-09T14:39:53;16.70;98.10
28608;DHT22;15802;45.654;13.804;2023-04-09T14:42:18;16.60;97.70
28608;DHT22;15802;45.654;13.804;2023-04-09T14:44:44;16.60;98.20
28608;DHT22;15802;45.654;13.804;2023-04-09T14:47:10;16.60;97.30
28608;DHT22;15802;45.654;13.804;2023-04-09T14:49:36;16.40;97.70
28608;DHT22;15802;45.654;13.804;2023-04-09T14:52:01;16.30;98.00
28608;DHT22;15802;45.654;13.804;2023-04-09T14:54:27;16.40;97.90
28608;DHT22;15802;45.654;13.804;2023-04-09T14:56:54;16.40;98.30
28608;DHT22;15802;45.654;13.804;2023-04-09T14:59:21;16.30;98.10
28608;DHT22;15802;45.654;13.804;2023-04-09T15:01:47;16.30;98.30
28608;DHT22;15802;45.654;13.804;2023-04-09T15:04:13;16.10;98.20
28608;DHT22;15802;45.654;13.804;2023-04-09T15:06:38;15.60;99.10
28608;DHT22;15802;45.654;13.804;2023-04-09T15:09:05;15.30;99.60
28608;DHT22;15802;45.654;13.804;2023-04-09T15:11:33;15.20;99.60
28608;DHT22;15802;45.654;13.804;2023-04-09T15:13:59;15.20;99.70
28608;DHT22;15802;45.654;13.804;2023-04-09T15:16:26;15.50;99.50
28608;DHT22;15802;45.654;13.804;2023-04-09T15:18:52;15.80;99.00
28608;DHT22;15802;45.654;13.804;2023-04-09T15:21:19;15.70;99.20
28608;DHT22;15802;45.654;13.804;2023-04-09T15:23:45;15.80;99.20
28608;DHT22;15802;45.654;13.804;2023-04-09T15:26:11;15.90;98.80
28608;DHT22;15802;45.654;13.804;2023-04-09T15:28:37;15.90;98.60
28608;DHT22;15802;45.654;13.804;2023-04-09T15:31:02;16.00;98.60
28608;DHT22;15802;45.654;13.804;2023-04-09T15:33:28;16.00;98.70
28608;DHT22;15802;45.654;13.804;2023-04-09T15:35:55;16.20;98.30